sensor_id;sensor_type;location;lat;lon;timestamp;P1;durP1;ratioP1;P2;durP2;ratioP2
62903;SDS011;49000;50.698;13.322;2023-06-22T00:01:17;8.07;;;7.07;;
62903;SDS011;49000;50.698;13.322;2023-06-22T00:03:43;7.40;;;6.70;;
62903;SDS011;49000;50.698;13.322;2023-06-22T00:06:09;9.90;;;7.53;;
62903;SDS011;49000;50.698;13.322;2023-06-22T00:08:35;7.67;;;6.97;;
62903;SDS011;49000;50.698;13.322;2023-06-22T00:11:00;12.10;;;8.07;;
62903;SDS011;49000;50.698;13.322;2023-06-22T00:13:26;9.30;;;7.83;;
62903;SDS011;49000;50.698;13.322;2023-06-22T00:15:51;9.33;;;7.50;;
62903;SDS011;49000;50.698;13.322;2023-06-22T00:18:17;8.57;;;7.37;;
62903;SDS011;49000;50.698;13.322;2023-06-22T00:20:43;10.67;;;7.40;;
62903;SDS011;49000;50.698;13.322;2023-06-22T00:23:10;9.17;;;6.93;;
62903;SDS011;49000;50.698;13.322;2023-06-22T00:25:36;8.13;;;7.03;;
62903;SDS011;49000;50.698;13.322;2023-06-22T00:28:03;9.87;;;7.50;;
62903;SDS011;49000;50.698;13.322;2023-06-22T00:30:30;9.83;;;7.23;;
62903;SDS011;49000;50.698;13.322;2023-06-22T00:32:56;9.83;;;8.37;;
62903;SDS011;49000;50.698;13.322;2023-06-22T00:35:23;10.77;;;8.00;;
62903;SDS011;49000;50.698;13.322;2023-06-22T00:37:53;11.83;;;8.40;;
62903;SDS011;49000;50.698;13.322;2023-06-22T00:40:25;10.03;;;7.67;;
62903;SDS011;49000;50.698;13.322;2023-06-22T00:42:54;8.93;;;7.63;;
62903;SDS011;49000;50.698;13.322;2023-06-22T00:45:20;9.53;;;7.73;;
62903;SDS011;49000;50.698;13.322;2023-06-22T00:47:48;13.03;;;7.50;;
62903;SDS011;49000;50.698;13.322;2023-06-22T00:50:16;10.93;;;7.60;;
62903;SDS011;49000;50.698;13.322;2023-06-22T00:52:46;9.33;;;7.00;;
62903;SDS011;49000;50.698;13.322;2023-06-22T00:55:15;9.30;;;7.03;;
62903;SDS011;49000;50.698;13.322;2023-06-22T00:57:42;8.00;;;7.20;;
62903;SDS011;49000;50.698;13.322;2023-06-22T01:00:11;10.50;;;7.47;;
62903;SDS011;49000;50.698;13.322;2023-06-22T01:02:42;8.33;;;6.90;;
62903;SDS011;49000;50.698;13.322;2023-06-22T01:05:12;12.20;;;7.27;;
62903;SDS011;49000;50.698;13.322;2023-06-22T01:07:49;9.43;;;7.20;;
62903;SDS011;49000;50.698;13.322;2023-06-22T01:10:51;7.57;;;6.23;;
62903;SDS011;49000;50.698;13.322;2023-06-22T01:13:35;8.17;;;6.60;;
62903;SDS011;49000;50.698;13.322;2023-06-22T01:16:20;9.63;;;6.80;;
62903;SDS011;49000;50.698;13.322;2023-06-22T01:19:05;10.60;;;7.37;;
62903;SDS011;49000;50.698;13.322;2023-06-22T01:21:51;9.87;;;7.70;;
62903;SDS011;49000;50.698;13.322;2023-06-22T01:24:27;8.40;;;6.90;;
62903;SDS011;49000;50.698;13.322;2023-06-22T01:27:14;10.87;;;7.00;;
62903;SDS011;49000;50.698;13.322;2023-06-22T01:29:51;8.17;;;6.93;;
62903;SDS011;49000;50.698;13.322;2023-06-22T01:32:26;9.67;;;7.00;;
62903;SDS011;49000;50.698;13.322;2023-06-22T01:34:57;12.67;;;7.10;;
62903;SDS011;49000;50.698;13.322;2023-06-22T01:37:25;9.77;;;7.50;;
62903;SDS011;49000;50.698;13.322;2023-06-22T01:39:52;9.07;;;7.37;;
62903;SDS011;49000;50.698;13.322;2023-06-22T01:42:18;8.70;;;7.63;;
62903;SDS011;49000;50.698;13.322;2023-06-22T01:44:44;8.37;;;6.80;;
62903;SDS011;49000;50.698;13.322;2023-06-22T01:47:10;8.50;;;6.80;;
62903;SDS011;49000;50.698;13.322;2023-06-22T01:49:38;8.27;;;7.17;;
62903;SDS011;49000;50.698;13.322;2023-06-22T01:52:05;8.20;;;7.10;;
62903;SDS011;49000;50.698;13.322;2023-06-22T01:54:31;8.60;;;7.33;;
62903;SDS011;49000;50.698;13.322;2023-06-22T01:56:57;8.47;;;6.50;;
62903;SDS011;49000;50.698;13.322;2023-06-22T01:59:28;10.37;;;6.83;;
62903;SDS011;49000;50.698;13.322;2023-06-22T02:02:04;9.27;;;6.60;;
62903;SDS011;49000;50.698;13.322;2023-06-22T02:04:48;8.17;;;6.93;;
62903;SDS011;49000;50.698;13.322;2023-06-22T02:07:18;9.30;;;7.40;;
62903;SDS011;49000;50.698;13.322;2023-06-22T02:09:48;7.83;;;6.80;;
62903;SDS011;49000;50.698;13.322;2023-06-22T02:12:18;8.50;;;7.20;;
62903;SDS011;49000;50.698;13.322;2023-06-22T02:14:48;9.13;;;7.77;;
62903;SDS011;49000;50.698;13.322;2023-06-22T02:17:14;9.70;;;8.37;;
62903;SDS011;49000;50.698;13.322;2023-06-22T02:19:41;9.57;;;7.43;;
62903;SDS011;49000;50.698;13.322;2023-06-22T02:22:07;9.20;;;7.53;;
62903;SDS011;49000;50.698;13.322;2023-06-22T02:24:32;9.30;;;7.77;;
62903;SDS011;49000;50.698;13.322;2023-06-22T02:26:58;10.80;;;7.60;;
62903;SDS011;49000;50.698;13.322;2023-06-22T02:29:24;8.47;;;7.50;;
62903;SDS011;49000;50.698;13.322;2023-06-22T02:31:50;9.17;;;7.60;;
62903;SDS011;49000;50.698;13.322;2023-06-22T02:34:16;8.63;;;6.70;;
62903;SDS011;49000;50.698;13.322;2023-06-22T02:36:46;8.37;;;6.77;;
62903;SDS011;49000;50.698;13.322;2023-06-22T02:39:19;9.37;;;7.07;;
62903;SDS011;49000;50.698;13.322;2023-06-22T02:41:47;10.87;;;7.40;;
62903;SDS011;49000;50.698;13.322;2023-06-22T02:44:16;9.13;;;6.50;;
62903;SDS011;49000;50.698;13.322;2023-06-22T02:46:42;7.60;;;6.90;;
62903;SDS011;49000;50.698;13.322;2023-06-22T02:49:08;8.77;;;7.50;;
62903;SDS011;49000;50.698;13.322;2023-06-22T02:51:34;7.77;;;6.13;;
62903;SDS011;49000;50.698;13.322;2023-06-22T02:54:00;7.20;;;6.43;;
62903;SDS011;49000;50.698;13.322;2023-06-22T02:56:28;8.03;;;7.07;;
62903;SDS011;49000;50.698;13.322;2023-06-22T02:58:53;11.43;;;7.30;;
62903;SDS011;49000;50.698;13.322;2023-06-22T03:01:19;11.70;;;7.73;;
62903;SDS011;49000;50.698;13.322;2023-06-22T03:03:49;9.73;;;7.80;;
62903;SDS011;49000;50.698;13.322;2023-06-22T03:06:14;9.83;;;7.40;;
62903;SDS011;49000;50.698;13.322;2023-06-22T03:08:40;7.57;;;6.57;;
62903;SDS011;49000;50.698;13.322;2023-06-22T03:11:06;9.03;;;7.77;;
62903;SDS011;49000;50.698;13.322;2023-06-22T03:13:32;11.20;;;7.37;;
62903;SDS011;49000;50.698;13.322;2023-06-22T03:15:58;8.83;;;7.77;;
62903;SDS011;49000;50.698;13.322;2023-06-22T03:18:24;11.00;;;8.60;;
62903;SDS011;49000;50.698;13.322;2023-06-22T03:20:49;9.87;;;7.60;;
62903;SDS011;49000;50.698;13.322;2023-06-22T03:23:14;8.70;;;7.60;;
62903;SDS011;49000;50.698;13.322;2023-06-22T03:25:40;8.80;;;7.70;;
62903;SDS011;49000;50.698;13.322;2023-06-22T03:28:07;9.70;;;7.17;;
62903;SDS011;49000;50.698;13.322;2023-06-22T03:30:32;9.37;;;7.83;;
62903;SDS011;49000;50.698;13.322;2023-06-22T03:32:57;10.70;;;8.30;;
62903;SDS011;49000;50.698;13.322;2023-06-22T03:35:23;10.23;;;9.13;;
62903;SDS011;49000;50.698;13.322;2023-06-22T03:37:48;9.10;;;8.20;;
62903;SDS011;49000;50.698;13.322;2023-06-22T03:40:14;9.77;;;7.77;;
62903;SDS011;49000;50.698;13.322;2023-06-22T03:42:39;8.30;;;7.13;;
62903;SDS011;49000;50.698;13.322;2023-06-22T03:45:05;8.70;;;7.80;;
62903;SDS011;49000;50.698;13.322;2023-06-22T03:47:31;8.73;;;7.80;;
62903;SDS011;49000;50.698;13.322;2023-06-22T03:49:57;9.93;;;8.70;;
62903;SDS011;49000;50.698;13.322;2023-06-22T03:52:23;10.20;;;8.20;;
62903;SDS011;49000;50.698;13.322;2023-06-22T03:54:48;9.47;;;8.57;;
62903;SDS011;49000;50.698;13.322;2023-06-22T03:57:14;11.07;;;8.40;;
62903;SDS011;49000;50.698;13.322;2023-06-22T03:59:39;10.23;;;9.13;;
62903;SDS011;49000;50.698;13.322;2023-06-22T04:02:05;9.73;;;8.73;;
62903;SDS011;49000;50.698;13.322;2023-06-22T04:04:30;9.30;;;7.97;;
62903;SDS011;49000;50.698;13.322;2023-06-22T04:06:56;9.40;;;8.40;;
62903;SDS011;49000;50.698;13.322;2023-06-22T04:09:21;9.53;;;8.53;;
62903;SDS011;49000;50.698;13.322;2023-06-22T04:11:47;9.03;;;8.00;;
62903;SDS011;49000;50.698;13.322;2023-06-22T04:14:12;10.93;;;8.77;;
62903;SDS011;49000;50.698;13.322;2023-06-22T04:16:38;7.60;;;6.87;;
62903;SDS011;49000;50.698;13.322;2023-06-22T04:19:03;10.73;;;8.80;;
62903;SDS011;49000;50.698;13.322;2023-06-22T04:21:29;8.93;;;7.50;;
62903;SDS011;49000;50.698;13.322;2023-06-22T04:23:54;9.33;;;7.83;;
62903;SDS011;49000;50.698;13.322;2023-06-22T04:26:20;8.03;;;7.07;;
62903;SDS011;49000;50.698;13.322;2023-06-22T04:28:46;8.70;;;7.70;;
62903;SDS011;49000;50.698;13.322;2023-06-22T04:31:16;9.23;;;8.23;;
62903;SDS011;49000;50.698;13.322;2023-06-22T04:33:44;10.47;;;9.10;;
62903;SDS011;49000;50.698;13.322;2023-06-22T04:36:10;9.50;;;7.90;;
62903;SDS011;49000;50.698;13.322;2023-06-22T04:38:38;8.10;;;6.97;;
62903;SDS011;49000;50.698;13.322;2023-06-22T04:41:04;10.70;;;7.67;;
62903;SDS011;49000;50.698;13.322;2023-06-22T04:43:29;10.10;;;9.00;;
62903;SDS011;49000;50.698;13.322;2023-06-22T04:45:55;9.37;;;8.20;;
62903;SDS011;49000;50.698;13.322;2023-06-22T04:48:28;10.03;;;9.00;;
62903;SDS011;49000;50.698;13.322;2023-06-22T04:50:57;9.43;;;8.53;;
62903;SDS011;49000;50.698;13.322;2023-06-22T04:53:29;10.50;;;9.27;;
62903;SDS011;49000;50.698;13.322;2023-06-22T04:55:55;9.90;;;8.87;;
62903;SDS011;49000;50.698;13.322;2023-06-22T04:58:20;10.47;;;9.40;;
62903;SDS011;49000;50.698;13.322;2023-06-22T05:00:46;9.67;;;8.67;;
62903;SDS011;49000;50.698;13.322;2023-06-22T05:03:12;10.03;;;8.30;;
62903;SDS011;49000;50.698;13.322;2023-06-22T05:05:37;9.37;;;8.33;;
62903;SDS011;49000;50.698;13.322;2023-06-22T05:08:03;9.57;;;8.47;;
62903;SDS011;49000;50.698;13.322;2023-06-22T05:10:31;9.53;;;8.53;;
62903;SDS011;49000;50.698;13.322;2023-06-22T05:12:57;9.40;;;8.50;;
62903;SDS011;49000;50.698;13.322;2023-06-22T05:15:23;9.30;;;8.27;;
62903;SDS011;49000;50.698;13.322;2023-06-22T05:17:52;9.65;;;8.65;;
62903;SDS011;49000;50.698;13.322;2023-06-22T05:20:18;9.57;;;8.40;;
62903;SDS011;49000;50.698;13.322;2023-06-22T05:22:43;9.20;;;8.20;;
62903;SDS011;49000;50.698;13.322;2023-06-22T05:25:10;8.82;;;8.02;;
62903;SDS011;49000;50.698;13.322;2023-06-22T05:27:36;8.87;;;7.97;;
62903;SDS011;49000;50.698;13.322;2023-06-22T05:30:04;9.27;;;8.27;;
62903;SDS011;49000;50.698;13.322;2023-06-22T05:32:31;8.93;;;7.63;;
62903;SDS011;49000;50.698;13.322;2023-06-22T05:34:57;8.68;;;7.88;;
62903;SDS011;49000;50.698;13.322;2023-06-22T05:37:22;8.52;;;7.72;;
62903;SDS011;49000;50.698;13.322;2023-06-22T05:39:48;9.10;;;7.75;;
62903;SDS011;49000;50.698;13.322;2023-06-22T05:42:13;9.95;;;9.05;;
62903;SDS011;49000;50.698;13.322;2023-06-22T05:44:39;10.15;;;8.85;;
62903;SDS011;49000;50.698;13.322;2023-06-22T05:47:05;11.15;;;9.63;;
62903;SDS011;49000;50.698;13.322;2023-06-22T05:49:31;10.10;;;9.13;;
62903;SDS011;49000;50.698;13.322;2023-06-22T05:51:57;11.52;;;9.52;;
62903;SDS011;49000;50.698;13.322;2023-06-22T05:54:24;9.82;;;8.73;;
62903;SDS011;49000;50.698;13.322;2023-06-22T05:56:49;9.45;;;8.55;;
62903;SDS011;49000;50.698;13.322;2023-06-22T05:59:15;9.13;;;8.23;;
62903;SDS011;49000;50.698;13.322;2023-06-22T06:01:40;9.55;;;8.70;;
62903;SDS011;49000;50.698;13.322;2023-06-22T06:04:06;8.52;;;7.72;;
62903;SDS011;49000;50.698;13.322;2023-06-22T06:06:34;9.23;;;8.30;;
62903;SDS011;49000;50.698;13.322;2023-06-22T06:09:02;10.50;;;9.48;;
62903;SDS011;49000;50.698;13.322;2023-06-22T06:11:28;10.10;;;9.10;;
62903;SDS011;49000;50.698;13.322;2023-06-22T06:13:54;9.80;;;8.80;;
62903;SDS011;49000;50.698;13.322;2023-06-22T06:16:19;8.82;;;7.93;;
62903;SDS011;49000;50.698;13.322;2023-06-22T06:18:45;8.98;;;8.18;;
62903;SDS011;49000;50.698;13.322;2023-06-22T06:21:10;9.50;;;7.90;;
62903;SDS011;49000;50.698;13.322;2023-06-22T06:23:36;9.38;;;8.43;;
62903;SDS011;49000;50.698;13.322;2023-06-22T06:26:01;10.70;;;8.60;;
62903;SDS011;49000;50.698;13.322;2023-06-22T06:28:27;10.07;;;9.02;;
62903;SDS011;49000;50.698;13.322;2023-06-22T06:30:52;9.68;;;8.70;;
62903;SDS011;49000;50.698;13.322;2023-06-22T06:33:18;12.55;;;9.45;;
62903;SDS011;49000;50.698;13.322;2023-06-22T06:35:46;9.30;;;8.18;;
62903;SDS011;49000;50.698;13.322;2023-06-22T06:38:12;9.20;;;8.23;;
62903;SDS011;49000;50.698;13.322;2023-06-22T06:40:37;9.07;;;8.18;;
62903;SDS011;49000;50.698;13.322;2023-06-22T06:43:03;9.00;;;8.10;;
62903;SDS011;49000;50.698;13.322;2023-06-22T06:45:29;8.63;;;7.70;;
62903;SDS011;49000;50.698;13.322;2023-06-22T06:47:57;8.50;;;7.70;;
62903;SDS011;49000;50.698;13.322;2023-06-22T06:50:23;9.07;;;8.18;;
62903;SDS011;49000;50.698;13.322;2023-06-22T06:52:48;8.68;;;7.88;;
62903;SDS011;49000;50.698;13.322;2023-06-22T06:55:17;11.93;;;8.10;;
62903;SDS011;49000;50.698;13.322;2023-06-22T06:57:44;11.68;;;6.95;;
62903;SDS011;49000;50.698;13.322;2023-06-22T07:00:13;8.10;;;7.35;;
62903;SDS011;49000;50.698;13.322;2023-06-22T07:02:40;7.75;;;6.93;;
62903;SDS011;49000;50.698;13.322;2023-06-22T07:05:07;8.40;;;7.60;;
62903;SDS011;49000;50.698;13.322;2023-06-22T07:07:33;8.18;;;7.45;;
62903;SDS011;49000;50.698;13.322;2023-06-22T07:09:59;8.05;;;7.30;;
62903;SDS011;49000;50.698;13.322;2023-06-22T07:12:25;8.23;;;7.43;;
62903;SDS011;49000;50.698;13.322;2023-06-22T07:14:51;8.63;;;7.72;;
62903;SDS011;49000;50.698;13.322;2023-06-22T07:17:17;9.93;;;8.07;;
62903;SDS011;49000;50.698;13.322;2023-06-22T07:19:43;9.90;;;7.93;;
62903;SDS011;49000;50.698;13.322;2023-06-22T07:22:08;8.75;;;7.85;;
62903;SDS011;49000;50.698;13.322;2023-06-22T07:24:34;9.23;;;8.40;;
62903;SDS011;49000;50.698;13.322;2023-06-22T07:26:59;8.82;;;7.93;;
62903;SDS011;49000;50.698;13.322;2023-06-22T07:29:25;9.30;;;8.40;;
62903;SDS011;49000;50.698;13.322;2023-06-22T07:31:52;11.50;;;8.82;;
62903;SDS011;49000;50.698;13.322;2023-06-22T07:34:18;10.27;;;8.63;;
62903;SDS011;49000;50.698;13.322;2023-06-22T07:36:44;9.98;;;7.95;;
62903;SDS011;49000;50.698;13.322;2023-06-22T07:39:09;10.48;;;8.00;;
62903;SDS011;49000;50.698;13.322;2023-06-22T07:41:36;10.65;;;8.77;;
62903;SDS011;49000;50.698;13.322;2023-06-22T07:44:02;10.75;;;8.73;;
62903;SDS011;49000;50.698;13.322;2023-06-22T07:46:28;10.18;;;8.27;;
62903;SDS011;49000;50.698;13.322;2023-06-22T07:48:55;9.65;;;8.45;;
62903;SDS011;49000;50.698;13.322;2023-06-22T07:51:21;10.98;;;8.52;;
62903;SDS011;49000;50.698;13.322;2023-06-22T07:53:46;9.02;;;8.07;;
62903;SDS011;49000;50.698;13.322;2023-06-22T07:56:12;9.25;;;8.30;;
62903;SDS011;49000;50.698;13.322;2023-06-22T07:58:38;9.00;;;8.10;;
62903;SDS011;49000;50.698;13.322;2023-06-22T08:01:04;9.18;;;8.38;;
62903;SDS011;49000;50.698;13.322;2023-06-22T08:03:29;8.93;;;8.13;;
62903;SDS011;49000;50.698;13.322;2023-06-22T08:05:55;8.95;;;8.10;;
62903;SDS011;49000;50.698;13.322;2023-06-22T08:08:21;9.32;;;8.43;;
62903;SDS011;49000;50.698;13.322;2023-06-22T08:10:46;9.70;;;8.70;;
62903;SDS011;49000;50.698;13.322;2023-06-22T08:13:12;17.25;;;7.85;;
62903;SDS011;49000;50.698;13.322;2023-06-22T08:15:37;9.35;;;8.40;;
62903;SDS011;49000;50.698;13.322;2023-06-22T08:18:03;9.20;;;8.30;;
62903;SDS011;49000;50.698;13.322;2023-06-22T08:20:28;9.27;;;8.30;;
62903;SDS011;49000;50.698;13.322;2023-06-22T08:22:56;9.90;;;8.65;;
62903;SDS011;49000;50.698;13.322;2023-06-22T08:25:23;10.18;;;9.25;;
62903;SDS011;49000;50.698;13.322;2023-06-22T08:27:48;9.63;;;8.18;;
62903;SDS011;49000;50.698;13.322;2023-06-22T08:30:14;11.15;;;9.43;;
62903;SDS011;49000;50.698;13.322;2023-06-22T08:32:40;11.82;;;9.60;;
62903;SDS011;49000;50.698;13.322;2023-06-22T08:35:06;11.73;;;9.90;;
62903;SDS011;49000;50.698;13.322;2023-06-22T08:37:33;9.48;;;8.55;;
62903;SDS011;49000;50.698;13.322;2023-06-22T08:40:00;9.93;;;8.93;;
62903;SDS011;49000;50.698;13.322;2023-06-22T08:42:30;10.20;;;9.23;;
62903;SDS011;49000;50.698;13.322;2023-06-22T08:44:55;11.40;;;9.48;;
62903;SDS011;49000;50.698;13.322;2023-06-22T08:47:21;11.18;;;9.45;;
62903;SDS011;49000;50.698;13.322;2023-06-22T08:49:47;11.48;;;10.32;;
62903;SDS011;49000;50.698;13.322;2023-06-22T08:52:13;11.00;;;9.95;;
62903;SDS011;49000;50.698;13.322;2023-06-22T08:54:39;11.93;;;10.48;;
62903;SDS011;49000;50.698;13.322;2023-06-22T08:57:04;10.75;;;9.65;;
62903;SDS011;49000;50.698;13.322;2023-06-22T08:59:30;12.57;;;10.55;;
62903;SDS011;49000;50.698;13.322;2023-06-22T09:01:55;11.30;;;10.20;;
62903;SDS011;49000;50.698;13.322;2023-06-22T09:04:21;11.48;;;10.43;;
62903;SDS011;49000;50.698;13.322;2023-06-22T09:06:47;14.38;;;10.32;;
62903;SDS011;49000;50.698;13.322;2023-06-22T09:09:13;10.73;;;9.75;;
62903;SDS011;49000;50.698;13.322;2023-06-22T09:11:39;14.50;;;10.93;;
62903;SDS011;49000;50.698;13.322;2023-06-22T09:14:05;12.38;;;11.00;;
62903;SDS011;49000;50.698;13.322;2023-06-22T09:16:31;12.32;;;11.15;;
62903;SDS011;49000;50.698;13.322;2023-06-22T09:18:56;12.95;;;10.95;;
62903;SDS011;49000;50.698;13.322;2023-06-22T09:21:23;12.80;;;11.43;;
62903;SDS011;49000;50.698;13.322;2023-06-22T09:23:48;11.68;;;10.65;;
62903;SDS011;49000;50.698;13.322;2023-06-22T09:26:16;12.48;;;11.27;;
62903;SDS011;49000;50.698;13.322;2023-06-22T09:28:45;12.32;;;11.13;;
62903;SDS011;49000;50.698;13.322;2023-06-22T09:31:10;11.15;;;10.05;;
62903;SDS011;49000;50.698;13.322;2023-06-22T09:33:36;13.18;;;11.85;;
62903;SDS011;49000;50.698;13.322;2023-06-22T09:36:05;12.27;;;11.13;;
62903;SDS011;49000;50.698;13.322;2023-06-22T09:38:34;13.15;;;10.98;;
62903;SDS011;49000;50.698;13.322;2023-06-22T09:41:02;12.63;;;11.32;;
62903;SDS011;49000;50.698;13.322;2023-06-22T09:43:29;12.68;;;11.48;;
62903;SDS011;49000;50.698;13.322;2023-06-22T09:45:56;13.45;;;11.25;;
62903;SDS011;49000;50.698;13.322;2023-06-22T09:48:22;13.23;;;11.93;;
62903;SDS011;49000;50.698;13.322;2023-06-22T09:50:47;13.35;;;10.98;;
62903;SDS011;49000;50.698;13.322;2023-06-22T09:53:13;11.82;;;10.77;;
62903;SDS011;49000;50.698;13.322;2023-06-22T09:55:38;12.80;;;11.60;;
62903;SDS011;49000;50.698;13.322;2023-06-22T09:58:04;11.60;;;10.65;;
62903;SDS011;49000;50.698;13.322;2023-06-22T10:00:29;12.90;;;11.57;;
62903;SDS011;49000;50.698;13.322;2023-06-22T10:02:55;13.10;;;11.75;;
62903;SDS011;49000;50.698;13.322;2023-06-22T10:05:21;12.40;;;11.30;;
62903;SDS011;49000;50.698;13.322;2023-06-22T10:07:47;12.05;;;10.85;;
62903;SDS011;49000;50.698;13.322;2023-06-22T10:10:12;11.90;;;10.70;;
62903;SDS011;49000;50.698;13.322;2023-06-22T10:12:42;11.68;;;10.57;;
62903;SDS011;49000;50.698;13.322;2023-06-22T10:15:10;11.88;;;10.65;;
62903;SDS011;49000;50.698;13.322;2023-06-22T10:17:36;11.23;;;10.27;;
62903;SDS011;49000;50.698;13.322;2023-06-22T10:20:01;12.05;;;9.32;;
62903;SDS011;49000;50.698;13.322;2023-06-22T10:22:31;10.30;;;8.80;;
62903;SDS011;49000;50.698;13.322;2023-06-22T10:24:57;10.93;;;9.73;;
62903;SDS011;49000;50.698;13.322;2023-06-22T10:27:22;10.10;;;9.30;;
62903;SDS011;49000;50.698;13.322;2023-06-22T10:29:48;11.48;;;9.60;;
62903;SDS011;49000;50.698;13.322;2023-06-22T10:32:13;10.57;;;9.18;;
62903;SDS011;49000;50.698;13.322;2023-06-22T10:34:38;11.93;;;10.38;;
62903;SDS011;49000;50.698;13.322;2023-06-22T10:37:04;11.07;;;10.07;;
62903;SDS011;49000;50.698;13.322;2023-06-22T10:39:30;11.27;;;10.27;;
62903;SDS011;49000;50.698;13.322;2023-06-22T10:41:55;9.63;;;8.82;;
62903;SDS011;49000;50.698;13.322;2023-06-22T10:44:21;10.50;;;9.45;;
62903;SDS011;49000;50.698;13.322;2023-06-22T10:46:46;12.93;;;9.00;;
62903;SDS011;49000;50.698;13.322;2023-06-22T10:49:12;8.40;;;7.70;;
62903;SDS011;49000;50.698;13.322;2023-06-22T10:51:37;9.05;;;8.15;;
62903;SDS011;49000;50.698;13.322;2023-06-22T10:54:03;9.07;;;8.18;;
62903;SDS011;49000;50.698;13.322;2023-06-22T10:56:29;10.77;;;9.13;;
62903;SDS011;49000;50.698;13.322;2023-06-22T10:58:54;9.20;;;8.30;;
62903;SDS011;49000;50.698;13.322;2023-06-22T11:01:20;9.68;;;8.63;;
62903;SDS011;49000;50.698;13.322;2023-06-22T11:03:46;9.18;;;8.27;;
62903;SDS011;49000;50.698;13.322;2023-06-22T11:06:11;9.18;;;8.38;;
62903;SDS011;49000;50.698;13.322;2023-06-22T11:08:36;8.88;;;8.07;;
62903;SDS011;49000;50.698;13.322;2023-06-22T11:11:02;8.77;;;7.97;;
62903;SDS011;49000;50.698;13.322;2023-06-22T11:13:27;9.52;;;8.40;;
62903;SDS011;49000;50.698;13.322;2023-06-22T11:15:53;9.05;;;8.05;;
62903;SDS011;49000;50.698;13.322;2023-06-22T11:18:18;10.98;;;7.85;;
62903;SDS011;49000;50.698;13.322;2023-06-22T11:20:44;9.68;;;8.55;;
62903;SDS011;49000;50.698;13.322;2023-06-22T11:23:09;10.50;;;8.73;;
62903;SDS011;49000;50.698;13.322;2023-06-22T11:25:36;8.55;;;7.78;;
62903;SDS011;49000;50.698;13.322;2023-06-22T11:28:03;9.40;;;8.38;;
62903;SDS011;49000;50.698;13.322;2023-06-22T11:30:29;9.43;;;8.27;;
62903;SDS011;49000;50.698;13.322;2023-06-22T11:32:56;12.20;;;7.78;;
62903;SDS011;49000;50.698;13.322;2023-06-22T11:35:23;9.88;;;7.95;;
62903;SDS011;49000;50.698;13.322;2023-06-22T11:37:48;8.38;;;7.68;;
62903;SDS011;49000;50.698;13.322;2023-06-22T11:40:14;9.23;;;8.32;;
62903;SDS011;49000;50.698;13.322;2023-06-22T11:42:39;12.05;;;7.85;;
62903;SDS011;49000;50.698;13.322;2023-06-22T11:45:05;9.07;;;8.13;;
62903;SDS011;49000;50.698;13.322;2023-06-22T11:47:31;8.57;;;7.88;;
62903;SDS011;49000;50.698;13.322;2023-06-22T11:49:57;9.57;;;8.35;;
62903;SDS011;49000;50.698;13.322;2023-06-22T11:52:22;8.95;;;8.02;;
62903;SDS011;49000;50.698;13.322;2023-06-22T11:54:48;9.85;;;7.90;;
62903;SDS011;49000;50.698;13.322;2023-06-22T11:57:13;10.45;;;8.48;;
62903;SDS011;49000;50.698;13.322;2023-06-22T11:59:38;8.73;;;7.93;;
62903;SDS011;49000;50.698;13.322;2023-06-22T12:02:04;8.80;;;7.60;;
62903;SDS011;49000;50.698;13.322;2023-06-22T12:04:32;8.20;;;7.50;;
62903;SDS011;49000;50.698;13.322;2023-06-22T12:06:58;9.73;;;8.65;;
62903;SDS011;49000;50.698;13.322;2023-06-22T12:09:23;8.60;;;7.90;;
62903;SDS011;49000;50.698;13.322;2023-06-22T12:11:49;8.30;;;7.60;;
62903;SDS011;49000;50.698;13.322;2023-06-22T12:14:14;8.63;;;7.78;;
62903;SDS011;49000;50.698;13.322;2023-06-22T12:16:40;12.27;;;7.65;;
62903;SDS011;49000;50.698;13.322;2023-06-22T12:19:05;8.68;;;7.85;;
62903;SDS011;49000;50.698;13.322;2023-06-22T12:21:31;10.32;;;7.82;;
62903;SDS011;49000;50.698;13.322;2023-06-22T12:23:56;9.13;;;8.32;;
62903;SDS011;49000;50.698;13.322;2023-06-22T12:26:22;8.45;;;7.68;;
62903;SDS011;49000;50.698;13.322;2023-06-22T12:28:47;9.18;;;7.53;;
62903;SDS011;49000;50.698;13.322;2023-06-22T12:31:13;8.93;;;8.13;;
62903;SDS011;49000;50.698;13.322;2023-06-22T12:33:39;9.63;;;7.75;;
62903;SDS011;49000;50.698;13.322;2023-06-22T12:36:04;10.73;;;8.88;;
62903;SDS011;49000;50.698;13.322;2023-06-22T12:38:30;8.80;;;7.90;;
62903;SDS011;49000;50.698;13.322;2023-06-22T12:40:55;8.07;;;7.22;;
62903;SDS011;49000;50.698;13.322;2023-06-22T12:43:21;8.98;;;8.07;;
62903;SDS011;49000;50.698;13.322;2023-06-22T12:45:46;8.48;;;7.57;;
62903;SDS011;49000;50.698;13.322;2023-06-22T12:48:12;9.43;;;8.20;;
62903;SDS011;49000;50.698;13.322;2023-06-22T12:50:38;9.00;;;7.40;;
62903;SDS011;49000;50.698;13.322;2023-06-22T12:53:03;11.13;;;8.50;;
62903;SDS011;49000;50.698;13.322;2023-06-22T12:55:29;8.35;;;7.65;;
62903;SDS011;49000;50.698;13.322;2023-06-22T12:57:55;9.38;;;7.82;;
62903;SDS011;49000;50.698;13.322;2023-06-22T13:00:20;9.13;;;7.85;;
62903;SDS011;49000;50.698;13.322;2023-06-22T13:02:46;9.85;;;8.18;;
62903;SDS011;49000;50.698;13.322;2023-06-22T13:05:11;8.60;;;7.72;;
62903;SDS011;49000;50.698;13.322;2023-06-22T13:07:37;9.10;;;8.20;;
62903;SDS011;49000;50.698;13.322;2023-06-22T13:10:02;8.35;;;7.65;;
62903;SDS011;49000;50.698;13.322;2023-06-22T13:12:28;10.27;;;7.55;;
62903;SDS011;49000;50.698;13.322;2023-06-22T13:14:54;8.65;;;7.85;;
62903;SDS011;49000;50.698;13.322;2023-06-22T13:17:19;9.63;;;8.20;;
62903;SDS011;49000;50.698;13.322;2023-06-22T13:19:45;9.00;;;8.15;;
62903;SDS011;49000;50.698;13.322;2023-06-22T13:22:27;9.55;;;8.48;;
62903;SDS011;49000;50.698;13.322;2023-06-22T13:24:55;12.10;;;9.15;;
62903;SDS011;49000;50.698;13.322;2023-06-22T13:27:21;9.55;;;8.52;;
62903;SDS011;49000;50.698;13.322;2023-06-22T13:29:46;9.32;;;8.45;;
62903;SDS011;49000;50.698;13.322;2023-06-22T13:32:11;26.00;;;11.75;;
62903;SDS011;49000;50.698;13.322;2023-06-22T13:34:37;15.77;;;8.90;;
62903;SDS011;49000;50.698;13.322;2023-06-22T13:37:02;18.27;;;11.20;;
62903;SDS011;49000;50.698;13.322;2023-06-22T13:39:28;9.70;;;8.50;;
62903;SDS011;49000;50.698;13.322;2023-06-22T13:41:53;9.48;;;7.90;;
62903;SDS011;49000;50.698;13.322;2023-06-22T13:44:19;28.48;;;15.40;;
62903;SDS011;49000;50.698;13.322;2023-06-22T13:46:46;10.40;;;8.75;;
62903;SDS011;49000;50.698;13.322;2023-06-22T13:49:11;20.75;;;11.90;;
62903;SDS011;49000;50.698;13.322;2023-06-22T13:51:37;10.00;;;8.90;;
62903;SDS011;49000;50.698;13.322;2023-06-22T13:54:02;13.07;;;8.10;;
62903;SDS011;49000;50.698;13.322;2023-06-22T13:56:28;9.35;;;8.38;;
62903;SDS011;49000;50.698;13.322;2023-06-22T13:58:53;9.13;;;8.23;;
62903;SDS011;49000;50.698;13.322;2023-06-22T14:01:19;9.43;;;8.10;;
62903;SDS011;49000;50.698;13.322;2023-06-22T14:03:44;9.65;;;7.30;;
62903;SDS011;49000;50.698;13.322;2023-06-22T14:06:11;10.15;;;8.13;;
62903;SDS011;49000;50.698;13.322;2023-06-22T14:08:37;8.35;;;7.55;;
62903;SDS011;49000;50.698;13.322;2023-06-22T14:11:03;11.68;;;7.50;;
62903;SDS011;49000;50.698;13.322;2023-06-22T14:13:28;8.50;;;7.80;;
62903;SDS011;49000;50.698;13.322;2023-06-22T14:15:54;9.65;;;7.97;;
62903;SDS011;49000;50.698;13.322;2023-06-22T14:18:19;8.75;;;8.00;;
62903;SDS011;49000;50.698;13.322;2023-06-22T14:20:47;10.93;;;7.93;;
62903;SDS011;49000;50.698;13.322;2023-06-22T14:23:13;8.82;;;8.05;;
62903;SDS011;49000;50.698;13.322;2023-06-22T14:25:39;9.45;;;7.55;;